Time;durP1;ratioP1;P1;durP2;ratioP2;P2;SDS_P1;SDS_P2;PMS_P1;PMS_P2;Temp;Humidity;BMP_temperature;BMP_pressure;BME280_temperature;BME280_humidity;BME280_pressure;Samples;Min_cycle;Max_cycle;Signal;HPM_P1;HPM_P2
2021/05/19 00:01:42;;;;;;;7.03;6.33;;;11.30;99.90;;;;;;5116664;28;20203;-66
2021/05/19 00:04:11;;;;;;;7.13;6.43;;;11.30;99.90;;;;;;5116369;28;20244;-66
2021/05/19 00:06:40;;;;;;;7.40;6.07;;;11.20;99.90;;;;;;5116294;28;20235;-65
2021/05/19 00:09:09;;;;;;;7.70;6.90;;;11.20;99.90;;;;;;5116201;28;20743;-66
2021/05/19 00:11:37;;;;;;;7.47;6.40;;;11.10;99.90;;;;;;5116191;28;20673;-66
2021/05/19 00:14:09;;;;;;;8.77;6.87;;;11.20;99.90;;;;;;5115720;28;20204;-65
2021/05/19 00:16:37;;;;;;;7.93;7.13;;;11.20;99.90;;;;;;5116433;28;20184;-66
2021/05/19 00:19:05;;;;;;;7.20;6.47;;;11.10;99.90;;;;;;5116363;28;20196;-66
2021/05/19 00:21:32;;;;;;;7.27;6.57;;;11.00;99.90;;;;;;5116033;28;20286;-66
2021/05/19 00:24:01;;;;;;;8.30;7.17;;;11.00;99.90;;;;;;5116230;28;20408;-66
2021/05/19 00:26:28;;;;;;;7.30;6.57;;;11.00;99.90;;;;;;5115118;28;20290;-66
2021/05/19 00:28:56;;;;;;;8.47;6.70;;;11.00;99.90;;;;;;5115618;28;20254;-66
2021/05/19 00:31:25;;;;;;;7.20;6.50;;;11.00;99.90;;;;;;5115751;28;20213;-66
2021/05/19 00:33:52;;;;;;;7.37;6.67;;;11.00;99.90;;;;;;5115739;28;20753;-66
2021/05/19 00:36:20;;;;;;;7.97;7.00;;;11.10;99.90;;;;;;5115963;28;20282;-66
2021/05/19 00:38:47;;;;;;;7.63;6.83;;;11.10;99.90;;;;;;5115531;28;20734;-66
2021/05/19 00:41:16;;;;;;;7.63;6.83;;;11.10;99.90;;;;;;5115903;28;20290;-66
2021/05/19 00:43:43;;;;;;;8.37;7.10;;;11.20;99.90;;;;;;5115311;28;20804;-66
2021/05/19 00:46:10;;;;;;;8.27;7.40;;;11.30;99.90;;;;;;5115756;28;20205;-66
2021/05/19 00:48:38;;;;;;;8.43;7.43;;;11.30;99.90;;;;;;5115739;28;20305;-66
2021/05/19 00:51:06;;;;;;;7.70;6.70;;;11.30;99.90;;;;;;5115640;28;20203;-66
2021/05/19 00:53:34;;;;;;;8.40;7.60;;;11.40;99.90;;;;;;5115355;28;20203;-66
2021/05/19 00:56:02;;;;;;;8.93;8.03;;;11.40;99.90;;;;;;5115319;28;20592;-65
2021/05/19 00:58:31;;;;;;;9.50;8.50;;;11.50;99.90;;;;;;5115355;28;20223;-66
2021/05/19 01:00:58;;;;;;;9.70;8.60;;;11.50;99.90;;;;;;5115244;28;20199;-65
2021/05/19 01:03:26;;;;;;;12.37;9.50;;;11.50;99.90;;;;;;5115426;28;20226;-66
2021/05/19 01:05:58;;;;;;;11.60;8.93;;;11.50;99.90;;;;;;5115485;28;20305;-67
2021/05/19 01:11:12;;;;;;;10.93;9.70;;;11.40;99.90;;;;;;5115397;28;20216;-66
2021/05/19 01:13:43;;;;;;;11.50;9.50;;;11.40;99.90;;;;;;5115045;28;20208;-67
2021/05/19 01:16:11;;;;;;;12.00;10.10;;;11.40;99.90;;;;;;5115256;28;20274;-66
2021/05/19 01:18:40;;;;;;;10.33;9.27;;;11.40;99.90;;;;;;5115049;28;20222;-66
2021/05/19 01:21:08;;;;;;;10.50;9.40;;;11.40;99.90;;;;;;5115120;28;20235;-66
2021/05/19 01:23:37;;;;;;;12.30;10.13;;;11.30;99.90;;;;;;5114982;28;20205;-66
2021/05/19 01:26:07;;;;;;;12.90;10.20;;;11.30;99.90;;;;;;5114728;28;20204;-66
2021/05/19 01:28:34;;;;;;;10.93;8.87;;;11.30;99.90;;;;;;5114583;28;20322;-66
2021/05/19 01:31:02;;;;;;;10.80;9.27;;;11.20;99.90;;;;;;5114718;28;20199;-66
2021/05/19 01:33:29;;;;;;;10.33;9.17;;;11.20;99.90;;;;;;5114873;28;20203;-66
2021/05/19 01:35:57;;;;;;;10.47;9.37;;;11.10;99.90;;;;;;5114460;28;20762;-67
2021/05/19 01:38:24;;;;;;;11.87;8.70;;;11.10;99.90;;;;;;5114113;28;20239;-66
2021/05/19 01:40:52;;;;;;;11.13;9.53;;;11.20;99.90;;;;;;5114847;28;20204;-66
2021/05/19 01:43:29;;;;;;;11.70;9.23;;;11.10;99.90;;;;;;5114243;28;20211;-66
2021/05/19 01:46:00;;;;;;;10.40;8.70;;;11.10;99.90;;;;;;5114268;28;20616;-66
2021/05/19 01:48:28;;;;;;;10.10;8.93;;;11.10;99.90;;;;;;5114236;28;20687;-67
2021/05/19 01:50:56;;;;;;;10.07;8.80;;;11.20;99.90;;;;;;5114209;28;20637;-66
2021/05/19 01:53:28;;;;;;;11.63;9.17;;;11.10;99.90;;;;;;5114519;28;20195;-67
2021/05/19 01:55:56;;;;;;;10.37;8.67;;;11.20;99.90;;;;;;5114507;28;20249;-67
2021/05/19 01:58:23;;;;;;;10.50;8.57;;;11.10;99.90;;;;;;5114213;28;20205;-67
2021/05/19 02:00:52;;;;;;;9.40;8.17;;;11.20;99.90;;;;;;5114209;28;20207;-66
2021/05/19 02:03:20;;;;;;;9.60;8.60;;;11.20;99.90;;;;;;5114274;28;20594;-66
2021/05/19 02:05:47;;;;;;;10.33;8.67;;;11.20;99.90;;;;;;5114248;28;20200;-66
2021/05/19 02:08:15;;;;;;;9.53;8.50;;;11.20;99.90;;;;;;5114179;28;20253;-67
2021/05/19 02:10:45;;;;;;;8.77;7.67;;;11.30;99.90;;;;;;5114181;28;20183;-67
2021/05/19 02:13:16;;;;;;;9.50;8.20;;;11.30;99.90;;;;;;5113752;28;20643;-67
2021/05/19 02:15:43;;;;;;;11.17;8.17;;;11.30;99.90;;;;;;5113944;28;20252;-67
2021/05/19 02:18:11;;;;;;;8.80;7.87;;;11.30;99.90;;;;;;5113752;28;20679;-66
2021/05/19 02:20:39;;;;;;;8.80;7.87;;;11.40;99.90;;;;;;5113575;28;20718;-66
2021/05/19 02:23:07;;;;;;;10.67;8.00;;;11.40;99.90;;;;;;5113907;28;20217;-66
2021/05/19 02:25:34;;;;;;;8.97;7.83;;;11.50;99.90;;;;;;5113845;28;20199;-66
2021/05/19 02:28:02;;;;;;;9.73;7.93;;;11.40;99.90;;;;;;5113464;28;20242;-66
2021/05/19 02:30:31;;;;;;;9.20;8.17;;;11.40;99.90;;;;;;5113501;28;20266;-66
2021/05/19 02:32:59;;;;;;;9.77;8.10;;;11.40;99.90;;;;;;5113516;28;20298;-65
2021/05/19 02:35:26;;;;;;;8.73;7.80;;;11.50;99.90;;;;;;5113381;28;20702;-67
2021/05/19 02:37:54;;;;;;;10.20;7.53;;;11.50;99.90;;;;;;5113487;28;20751;-66
2021/05/19 02:40:21;;;;;;;8.60;7.70;;;11.40;99.90;;;;;;5113344;28;20233;-66
2021/05/19 02:42:48;;;;;;;8.70;7.37;;;11.40;99.90;;;;;;5113548;28;20203;-66
2021/05/19 02:45:16;;;;;;;8.47;7.43;;;11.50;99.90;;;;;;5113299;28;20249;-66
2021/05/19 02:47:44;;;;;;;8.83;7.57;;;11.40;99.90;;;;;;5113491;28;20209;-67
2021/05/19 02:50:13;;;;;;;10.60;8.80;;;11.30;99.90;;;;;;5112544;28;20250;-66
2021/05/19 02:52:41;;;;;;;10.53;7.87;;;11.40;99.90;;;;;;5113398;28;20203;-66
2021/05/19 02:55:09;;;;;;;9.57;8.20;;;11.40;99.90;;;;;;5113156;28;20203;-65
2021/05/19 02:57:37;;;;;;;9.37;8.20;;;11.40;99.90;;;;;;5113369;28;20286;-66
2021/05/19 03:00:06;;;;;;;10.17;8.07;;;11.40;99.90;;;;;;5113217;28;20246;-66
2021/05/19 03:02:33;;;;;;;9.77;8.67;;;11.40;99.90;;;;;;5113345;28;20203;-66
2021/05/19 03:05:02;;;;;;;9.83;8.83;;;11.40;99.90;;;;;;5112996;28;20252;-66
2021/05/19 03:07:29;;;;;;;9.80;8.43;;;11.40;99.90;;;;;;5113302;28;20199;-66
2021/05/19 03:09:56;;;;;;;10.77;8.30;;;11.40;99.90;;;;;;5113232;28;20219;-67
2021/05/19 03:12:24;;;;;;;10.67;8.90;;;11.50;99.90;;;;;;5113325;28;20206;-67
2021/05/19 03:14:51;;;;;;;10.33;8.97;;;11.40;99.90;;;;;;5112943;28;20203;-66
2021/05/19 03:17:19;;;;;;;11.63;9.17;;;11.50;99.90;;;;;;5113327;28;20286;-67
2021/05/19 03:19:47;;;;;;;9.90;8.90;;;11.40;99.90;;;;;;5112661;28;20670;-66
2021/05/19 03:22:16;;;;;;;12.00;8.60;;;11.40;99.90;;;;;;5112939;28;20203;-66
2021/05/19 03:24:44;;;;;;;9.97;8.93;;;11.40;99.90;;;;;;5112826;28;20203;-66
2021/05/19 03:27:11;;;;;;;10.77;9.40;;;11.40;99.90;;;;;;5112850;28;20245;-67
2021/05/19 03:29:39;;;;;;;10.83;8.83;;;11.40;99.90;;;;;;5112465;28;20922;-67
2021/05/19 03:32:06;;;;;;;12.37;9.93;;;11.50;99.90;;;;;;5112606;28;20730;-66
2021/05/19 03:34:34;;;;;;;9.93;8.60;;;11.40;99.90;;;;;;5112800;28;20203;-67
2021/05/19 03:37:01;;;;;;;9.83;8.70;;;11.40;99.90;;;;;;5113240;28;20205;-66
2021/05/19 03:39:29;;;;;;;9.70;8.70;;;11.40;99.90;;;;;;5112587;28;20229;-67
2021/05/19 03:41:57;;;;;;;10.23;9.00;;;11.50;99.90;;;;;;5113046;28;20318;-67
2021/05/19 03:44:24;;;;;;;11.60;8.60;;;11.40;99.90;;;;;;5112727;28;20560;-66
2021/05/19 03:46:53;;;;;;;10.30;9.00;;;11.40;99.90;;;;;;5112631;28;20203;-65
2021/05/19 03:49:21;;;;;;;10.87;8.87;;;11.50;99.90;;;;;;5112875;28;20238;-65
2021/05/19 03:51:48;;;;;;;11.83;9.07;;;11.50;99.90;;;;;;5112988;28;20290;-66
2021/05/19 03:54:16;;;;;;;12.10;9.33;;;11.50;99.90;;;;;;5112634;28;20730;-66
2021/05/19 03:56:44;;;;;;;10.63;8.53;;;11.40;99.90;;;;;;5112898;28;20227;-67
2021/05/19 03:59:12;;;;;;;12.40;9.30;;;11.40;99.90;;;;;;5112270;28;20203;-66
2021/05/19 04:01:39;;;;;;;10.50;9.03;;;11.40;99.90;;;;;;5114176;28;20210;-66
2021/05/19 04:04:06;;;;;;;12.50;9.97;;;11.40;99.90;;;;;;5116888;28;20298;-66
2021/05/19 04:06:33;;;;;;;12.40;9.70;;;11.40;99.90;;;;;;5116573;28;20199;-66
2021/05/19 04:09:01;;;;;;;14.03;11.07;;;11.40;99.90;;;;;;5116174;28;20744;-66
2021/05/19 04:11:28;;;;;;;15.23;11.80;;;11.40;99.90;;;;;;5116513;28;20746;-66
2021/05/19 04:13:56;;;;;;;16.80;11.37;;;11.30;99.90;;;;;;5116070;28;20299;-66
2021/05/19 04:16:24;;;;;;;13.00;11.53;;;11.30;99.90;;;;;;5116386;28;20286;-67
2021/05/19 04:18:52;;;;;;;14.63;12.10;;;11.20;99.90;;;;;;5116258;28;20324;-67
2021/05/19 04:21:19;;;;;;;14.23;12.53;;;11.20;99.90;;;;;;5116379;28;20199;-66
2021/05/19 04:23:46;;;;;;;16.07;12.83;;;11.20;99.90;;;;;;5116243;28;20655;-67
2021/05/19 04:26:14;;;;;;;14.53;12.67;;;11.30;99.90;;;;;;5116208;28;20235;-66
2021/05/19 04:28:41;;;;;;;15.60;12.53;;;11.30;99.90;;;;;;5115938;28;20226;-66
2021/05/19 04:31:09;;;;;;;14.33;11.93;;;11.30;99.90;;;;;;5116007;28;20216;-67
2021/05/19 04:33:37;;;;;;;17.03;13.63;;;11.20;99.90;;;;;;5116064;28;20232;-67
2021/05/19 04:36:05;;;;;;;15.27;12.87;;;11.20;99.90;;;;;;5115810;28;20195;-66
2021/05/19 04:38:33;;;;;;;15.13;12.43;;;11.10;99.90;;;;;;5114960;28;20251;-66
2021/05/19 04:41:00;;;;;;;16.53;14.27;;;11.10;99.90;;;;;;5114590;28;20278;-66
2021/05/19 04:43:28;;;;;;;18.77;13.37;;;11.20;99.90;;;;;;5115617;28;20279;-66
2021/05/19 04:45:56;;;;;;;13.93;12.43;;;11.30;99.90;;;;;;5115680;28;20263;-66
2021/05/19 04:48:24;;;;;;;19.07;14.17;;;11.30;99.90;;;;;;5115551;28;20294;-67
2021/05/19 04:50:51;;;;;;;18.03;14.13;;;11.40;99.90;;;;;;5115653;28;20319;-66
2021/05/19 04:53:19;;;;;;;17.17;14.17;;;11.40;99.90;;;;;;5115456;28;20286;-67
2021/05/19 04:55:47;;;;;;;15.87;13.57;;;11.50;99.90;;;;;;5115546;28;20559;-66
2021/05/19 04:58:14;;;;;;;18.30;14.40;;;11.60;99.90;;;;;;5115276;28;20199;-66
2021/05/19 05:00:42;;;;;;;18.03;13.20;;;11.50;99.90;;;;;;5115018;28;20206;-66
2021/05/19 05:03:11;;;;;;;16.67;13.90;;;11.50;99.90;;;;;;5115409;28;20199;-66
2021/05/19 05:05:39;;;;;;;17.40;14.53;;;11.50;99.90;;;;;;5115401;28;20319;-66
2021/05/19 05:08:06;;;;;;;18.73;14.57;;;11.50;99.90;;;;;;5115351;28;20624;-66
2021/05/19 05:10:34;;;;;;;16.33;13.93;;;11.40;99.90;;;;;;5114921;28;20268;-66
2021/05/19 05:13:03;;;;;;;14.53;12.17;;;11.40;99.90;;;;;;5113974;28;20195;-67
2021/05/19 05:15:31;;;;;;;15.53;12.27;;;11.50;99.90;;;;;;5114243;28;20218;-66
2021/05/19 05:17:58;;;;;;;13.40;11.83;;;11.40;99.90;;;;;;5114685;28;20234;-67
2021/05/19 05:20:26;;;;;;;14.83;11.90;;;11.40;99.90;;;;;;5114926;28;20283;-67
2021/05/19 05:22:54;;;;;;;13.97;11.73;;;11.50;99.90;;;;;;5114995;28;20204;-67
2021/05/19 05:25:22;;;;;;;14.57;12.40;;;11.60;99.90;;;;;;5114975;28;20199;-67
2021/05/19 05:27:50;;;;;;;13.70;11.70;;;11.80;99.90;;;;;;5114827;28;20195;-66
2021/05/19 05:30:18;;;;;;;13.53;11.53;;;11.80;99.90;;;;;;5114252;28;20675;-68
2021/05/19 05:32:46;;;;;;;12.67;11.23;;;11.90;99.90;;;;;;5114472;28;20294;-67
2021/05/19 05:35:13;;;;;;;13.67;11.87;;;11.80;99.90;;;;;;5114745;28;20203;-67
2021/05/19 05:37:41;;;;;;;14.27;11.50;;;11.90;99.90;;;;;;5114207;28;20235;-66
2021/05/19 05:40:10;;;;;;;12.73;10.73;;;11.90;99.90;;;;;;5114415;28;20709;-67
2021/05/19 05:42:37;;;;;;;12.20;10.83;;;12.00;99.90;;;;;;5114264;28;20199;-67
2021/05/19 05:45:06;;;;;;;13.73;10.13;;;12.00;99.90;;;;;;5114560;28;20199;-66
2021/05/19 05:47:34;;;;;;;11.60;10.40;;;12.20;99.90;;;;;;5114032;28;20200;-66
2021/05/19 05:50:03;;;;;;;12.37;11.03;;;12.30;99.90;;;;;;5113978;28;20292;-66
2021/05/19 05:52:31;;;;;;;12.13;10.50;;;12.50;99.90;;;;;;5113851;28;20294;-65
2021/05/19 05:54:58;;;;;;;13.70;11.03;;;12.60;99.90;;;;;;5113774;28;20728;-66
2021/05/19 05:57:26;;;;;;;14.23;12.07;;;12.80;99.90;;;;;;5114273;28;20282;-66
2021/05/19 05:59:54;;;;;;;12.60;11.10;;;12.90;99.90;;;;;;5114065;28;20271;-66
2021/05/19 06:02:22;;;;;;;13.20;11.77;;;12.90;99.90;;;;;;5113783;28;20353;-66
2021/05/19 06:04:49;;;;;;;15.27;12.07;;;12.90;99.90;;;;;;5114159;28;20202;-66
2021/05/19 06:07:17;;;;;;;14.07;11.93;;;13.00;99.90;;;;;;5114157;28;20199;-66
2021/05/19 06:09:51;;;;;;;13.47;12.03;;;13.10;99.90;;;;;;5113864;28;20226;-66
2021/05/19 06:12:18;;;;;;;13.30;11.80;;;13.20;99.90;;;;;;5114062;28;20291;-66
2021/05/19 06:14:47;;;;;;;13.97;11.73;;;13.40;99.90;;;;;;5113738;28;20199;-66
2021/05/19 06:17:15;;;;;;;15.27;12.10;;;13.50;99.90;;;;;;5113874;28;20556;-67
2021/05/19 06:19:43;;;;;;;12.47;10.83;;;13.60;99.90;;;;;;5113541;28;20546;-66
2021/05/19 06:22:11;;;;;;;14.07;11.57;;;13.60;99.90;;;;;;5113474;28;20256;-65
2021/05/19 06:24:38;;;;;;;12.40;10.73;;;13.60;99.90;;;;;;5113272;28;20192;-66
2021/05/19 06:27:06;;;;;;;12.73;11.43;;;13.60;99.90;;;;;;5113899;28;20550;-64
2021/05/19 06:29:34;;;;;;;13.93;11.40;;;13.60;99.90;;;;;;5113122;28;20555;-65
2021/05/19 06:32:02;;;;;;;13.70;11.30;;;13.50;99.90;;;;;;5112863;28;20760;-65
2021/05/19 06:34:30;;;;;;;12.27;10.97;;;13.40;99.90;;;;;;5113689;28;20207;-67
2021/05/19 06:36:58;;;;;;;14.13;11.40;;;13.40;99.90;;;;;;5113476;28;20268;-67
2021/05/19 06:39:26;;;;;;;14.23;11.60;;;13.40;99.90;;;;;;5112286;28;20587;-66
2021/05/19 06:41:53;;;;;;;16.20;12.07;;;13.50;99.90;;;;;;5112747;28;20187;-66
2021/05/19 06:44:21;;;;;;;12.77;10.87;;;13.60;99.90;;;;;;5112728;28;20211;-67
2021/05/19 06:46:49;;;;;;;13.63;11.40;;;13.80;99.90;;;;;;5112677;28;20199;-67
2021/05/19 06:49:18;;;;;;;12.17;10.67;;;13.90;99.90;;;;;;5113453;28;20208;-66
2021/05/19 06:51:46;;;;;;;13.57;10.73;;;13.90;99.90;;;;;;5112935;28;20254;-66
2021/05/19 06:54:14;;;;;;;12.43;11.07;;;13.90;99.90;;;;;;5112898;28;20726;-66
2021/05/19 06:56:44;;;;;;;14.00;11.13;;;14.00;99.90;;;;;;5110899;28;20638;-67
2021/05/19 06:59:13;;;;;;;12.73;10.80;;;14.00;99.90;;;;;;5112964;28;20578;-66
2021/05/19 07:01:41;;;;;;;16.17;11.88;;;14.10;99.90;;;;;;5112822;28;20639;-64
2021/05/19 07:04:09;;;;;;;12.97;11.57;;;14.10;99.90;;;;;;5112695;28;20231;-62
2021/05/19 07:06:38;;;;;;;12.50;11.20;;;14.30;99.90;;;;;;5112973;28;20336;-65
2021/05/19 07:09:06;;;;;;;10.90;9.80;;;14.60;99.90;;;;;;5112724;28;20294;-72
2021/05/19 07:11:33;;;;;;;12.13;10.90;;;14.50;99.90;;;;;;5112621;28;20746;-62
2021/05/19 07:14:02;;;;;;;12.27;10.98;;;14.40;99.90;;;;;;5112710;28;20207;-62
2021/05/19 07:16:31;;;;;;;11.95;10.75;;;14.50;99.90;;;;;;5112867;28;20199;-62
2021/05/19 07:18:58;;;;;;;13.27;11.83;;;14.50;99.90;;;;;;5112873;28;20234;-62
2021/05/19 07:21:27;;;;;;;13.93;11.80;;;14.70;99.90;;;;;;5112636;28;20290;-62
2021/05/19 07:23:57;;;;;;;13.80;12.40;;;14.70;99.90;;;;;;5112994;28;20195;-63
2021/05/19 07:26:25;;;;;;;13.43;12.13;;;14.80;99.90;;;;;;5112606;28;20646;-62
2021/05/19 07:28:52;;;;;;;12.57;11.32;;;14.90;99.90;;;;;;5112576;28;20299;-62
2021/05/19 07:31:20;;;;;;;13.50;12.13;;;15.10;99.90;;;;;;5112425;28;20223;-61
2021/05/19 07:33:48;;;;;;;12.48;11.27;;;15.30;99.90;;;;;;5112375;28;20663;-62
2021/05/19 07:36:16;;;;;;;12.32;11.13;;;15.50;99.90;;;;;;5113752;28;20268;-62
2021/05/19 07:38:43;;;;;;;12.20;10.90;;;15.60;99.90;;;;;;5116345;28;20720;-61
2021/05/19 07:41:12;;;;;;;12.23;11.13;;;15.60;99.90;;;;;;5116662;28;20199;-62
2021/05/19 07:43:39;;;;;;;12.55;11.35;;;15.80;99.90;;;;;;5116466;28;20202;-63
2021/05/19 07:46:06;;;;;;;12.55;11.30;;;16.00;99.90;;;;;;5116422;28;20649;-61
2021/05/19 07:48:33;;;;;;;10.70;9.60;;;15.90;99.90;;;;;;5116513;28;20198;-59
2021/05/19 07:50:59;;;;;;;11.07;9.98;;;15.90;99.90;;;;;;5116540;28;20251;-62
2021/05/19 07:53:25;;;;;;;12.40;11.02;;;16.10;99.90;;;;;;5116193;28;20237;-60
2021/05/19 07:55:56;;;;;;;12.48;11.18;;;16.30;99.90;;;;;;5116397;28;20203;-60
2021/05/19 07:58:24;;;;;;;13.82;12.52;;;16.50;99.90;;;;;;5116499;28;20270;-62
2021/05/19 08:01:05;;;;;;;13.75;12.48;;;16.50;99.90;;;;;;5116339;28;20192;-63
2021/05/19 08:03:31;;;;;;;12.00;10.65;;;16.50;99.90;;;;;;5116125;28;20202;-62
2021/05/19 08:05:57;;;;;;;12.40;11.20;;;16.60;99.90;;;;;;5113978;28;20209;-62
2021/05/19 08:08:24;;;;;;;13.25;11.77;;;16.70;99.90;;;;;;5115918;28;20226;-64
2021/05/19 08:10:50;;;;;;;12.70;11.43;;;16.80;99.90;;;;;;5115826;28;20303;-62
2021/05/19 08:13:17;;;;;;;12.30;10.57;;;17.00;99.90;;;;;;5116168;28;20199;-61
2021/05/19 08:15:44;;;;;;;10.80;9.70;;;17.10;99.90;;;;;;5115795;28;20697;-59
2021/05/19 08:18:11;;;;;;;10.25;9.27;;;17.10;99.90;;;;;;5115981;28;20770;-59
2021/05/19 08:20:39;;;;;;;9.85;8.95;;;16.90;99.90;;;;;;5115687;28;20283;-59
2021/05/19 08:23:07;;;;;;;11.02;10.02;;;16.50;99.90;;;;;;5115821;28;20256;-59
2021/05/19 08:25:34;;;;;;;10.80;9.80;;;16.60;99.90;;;;;;5115818;28;20199;-60
2021/05/19 08:28:02;;;;;;;9.32;8.43;;;16.80;99.90;;;;;;5115789;28;20195;-59
2021/05/19 08:30:30;;;;;;;8.80;7.95;;;16.90;99.90;;;;;;5115236;28;20203;-59
2021/05/19 08:32:58;;;;;;;9.35;8.35;;;17.30;99.90;;;;;;5115829;28;20279;-60
2021/05/19 08:35:25;;;;;;;8.45;7.57;;;17.60;99.90;;;;;;5115663;28;20305;-60
2021/05/19 08:37:53;;;;;;;8.50;7.70;;;17.70;99.90;;;;;;5115418;28;20318;-60
2021/05/19 08:40:20;;;;;;;7.78;7.07;;;17.70;99.90;;;;;;5115484;28;20263;-62
2021/05/19 08:42:48;;;;;;;8.15;7.35;;;17.50;99.90;;;;;;5115424;28;20643;-63
2021/05/19 08:45:16;;;;;;;8.98;7.50;;;17.30;99.90;;;;;;5115157;28;20571;-62
2021/05/19 08:47:43;;;;;;;7.93;7.25;;;16.90;99.90;;;;;;5114006;28;20701;-61
2021/05/19 08:50:15;;;;;;;8.20;7.40;;;16.60;99.90;;;;;;5114895;28;20188;-61
2021/05/19 08:52:46;;;;;;;8.52;7.72;;;16.50;99.90;;;;;;5114882;28;20246;-61
2021/05/19 08:55:17;;;;;;;7.57;6.93;;;16.50;99.90;;;;;;5114865;28;20184;-60
2021/05/19 08:57:46;;;;;;;7.50;6.43;;;16.50;99.90;;;;;;5114862;28;20565;-62
2021/05/19 09:00:14;;;;;;;6.55;5.95;;;16.60;99.90;;;;;;5114912;28;20192;-62
2021/05/19 09:02:42;;;;;;;6.20;5.60;;;16.80;99.90;;;;;;5115080;28;20574;-61
2021/05/19 09:05:10;;;;;;;6.43;5.65;;;17.10;99.90;;;;;;5115102;28;20196;-61
2021/05/19 09:07:38;;;;;;;6.85;6.25;;;17.10;99.90;;;;;;5114926;28;20335;-61
2021/05/19 09:10:16;;;;;;;8.27;7.47;;;16.90;99.90;;;;;;5115025;28;20298;-61
2021/05/19 09:12:44;;;;;;;8.25;7.10;;;16.60;99.90;;;;;;5114796;28;20638;-60
2021/05/19 09:15:13;;;;;;;8.73;7.20;;;16.00;99.90;;;;;;5114272;28;20719;-60
2021/05/19 09:17:41;;;;;;;8.30;7.43;;;15.50;99.90;;;;;;5114909;28;20257;-61
2021/05/19 09:20:10;;;;;;;8.57;6.65;;;15.10;99.90;;;;;;5114721;28;20206;-61
2021/05/19 09:22:40;;;;;;;7.55;6.72;;;14.80;99.90;;;;;;5114724;28;20257;-60
2021/05/19 09:25:16;;;;;;;9.07;6.73;;;14.60;99.90;;;;;;5114425;28;20854;-60
2021/05/19 09:27:45;;;;;;;7.97;6.17;;;14.40;99.90;;;;;;5114755;28;20262;-61
2021/05/19 09:30:14;;;;;;;6.87;6.27;;;14.40;99.90;;;;;;5114378;28;20227;-59
2021/05/19 09:32:43;;;;;;;5.80;5.20;;;14.50;99.90;;;;;;5114523;28;20269;-60
2021/05/19 09:35:11;;;;;;;5.60;5.10;;;14.50;99.90;;;;;;5114225;28;20207;-60
2021/05/19 09:37:39;;;;;;;5.30;4.80;;;14.70;99.90;;;;;;5114342;28;20299;-61
2021/05/19 09:40:09;;;;;;;6.15;5.47;;;15.20;99.90;;;;;;5114083;28;20184;-60
2021/05/19 09:42:46;;;;;;;7.32;5.85;;;15.80;99.90;;;;;;5113922;28;20282;-60
2021/05/19 09:45:20;;;;;;;6.55;5.82;;;16.50;99.90;;;;;;5114123;28;20256;-60
2021/05/19 09:47:48;;;;;;;7.60;6.90;;;17.10;99.90;;;;;;5113660;28;20632;-60
2021/05/19 09:50:17;;;;;;;5.07;4.68;;;17.00;99.90;;;;;;5114053;28;20235;-61
2021/05/19 09:53:08;;;;;;;5.43;4.93;;;16.60;99.90;;;;;;5114047;28;20651;-59
2021/05/19 09:55:37;;;;;;;6.85;5.72;;;16.00;99.90;;;;;;5110892;28;20207;-60
2021/05/19 09:58:05;;;;;;;6.77;6.07;;;15.00;99.90;;;;;;5113629;28;20752;-59
2021/05/19 10:00:33;;;;;;;7.77;6.97;;;14.00;99.90;;;;;;5132205;27;20592;-60
2021/05/19 10:03:03;;;;;;;8.83;7.67;;;13.40;99.90;;;;;;5134545;27;20637;-60
2021/05/19 10:05:33;;;;;;;8.33;7.53;;;13.00;99.90;;;;;;5134396;27;20213;-59
2021/05/19 10:08:01;;;;;;;8.40;7.63;;;12.70;99.90;;;;;;5134477;27;20183;-59
2021/05/19 10:10:29;;;;;;;8.87;8.07;;;12.60;99.90;;;;;;5134129;27;20230;-59
2021/05/19 10:12:57;;;;;;;8.53;7.73;;;12.60;99.90;;;;;;5134045;27;20567;-59
2021/05/19 10:15:27;;;;;;;9.93;8.00;;;12.60;99.90;;;;;;5118976;27;20655;-60
2021/05/19 10:18:01;;;;;;;6.87;6.23;;;12.60;99.90;;;;;;5113691;28;20188;-61
2021/05/19 10:20:32;;;;;;;7.07;5.90;;;12.70;99.90;;;;;;5113394;28;20215;-61
2021/05/19 10:23:00;;;;;;;6.63;5.93;;;12.60;99.90;;;;;;5113451;28;20646;-60
2021/05/19 10:25:34;;;;;;;6.10;5.60;;;12.80;99.90;;;;;;5113456;28;20654;-61
2021/05/19 10:28:03;;;;;;;5.37;4.87;;;13.20;99.90;;;;;;5113662;28;20183;-60
2021/05/19 10:30:43;;;;;;;4.87;4.40;;;13.50;99.90;;;;;;5113212;28;20246;-61
2021/05/19 10:33:40;;;;;;;4.63;4.20;;;13.80;99.90;;;;;;5113257;28;20219;-61
2021/05/19 10:36:29;;;;;;;7.50;6.73;;;14.20;99.90;;;;;;5101936;28;20260;-61
2021/05/19 10:39:19;;;;;;;3.17;2.92;;;14.70;99.90;;;;;;5113107;28;20237;-61
2021/05/19 10:41:48;;;;;;;3.07;2.87;;;15.00;99.90;;;;;;5113538;28;20184;-62
2021/05/19 10:44:17;;;;;;;3.65;2.70;;;15.10;99.90;;;;;;5112928;28;20643;-65
2021/05/19 10:46:51;;;;;;;3.30;3.00;;;15.40;99.90;;;;;;5113378;28;20564;-65
2021/05/19 10:49:20;;;;;;;3.38;3.08;;;15.40;99.90;;;;;;5113417;28;20182;-64
2021/05/19 10:52:06;;;;;;;3.70;3.40;;;15.90;99.90;;;;;;5113439;28;20276;-65
2021/05/19 10:57:47;;;;;;;6.55;4.85;;;16.90;99.90;;;;;;5113128;28;20248;-63
2021/05/19 11:00:19;;;;;;;5.50;5.00;;;17.30;99.90;;;;;;5129062;27;20194;-61
2021/05/19 11:03:14;;;;;;;4.25;3.95;;;17.40;99.90;;;;;;5133708;27;20717;-61
2021/05/19 11:06:13;;;;;;;4.30;3.80;;;17.20;99.90;;;;;;5125990;27;20668;-58
2021/05/19 11:08:41;;;;;;;5.40;4.90;;;16.80;99.90;;;;;;5049981;28;20697;-61
2021/05/19 11:11:21;;;;;;;6.00;5.50;;;16.80;99.90;;;;;;5114853;27;20289;-61
2021/05/19 11:14:11;;;;;;;7.55;6.03;;;16.80;99.90;;;;;;5131801;28;20217;-61
2021/05/19 11:16:50;;;;;;;8.45;7.65;;;16.70;99.90;;;;;;5112880;28;20192;-60
2021/05/19 11:19:28;;;;;;;9.65;7.88;;;16.60;99.90;;;;;;5112907;28;20270;-61
2021/05/19 11:22:05;;;;;;;8.23;7.35;;;16.50;99.90;;;;;;5112703;28;20199;-60
2021/05/19 11:24:48;;;;;;;7.38;6.70;;;16.40;99.90;;;;;;5112565;28;20238;-62
2021/05/19 11:27:17;;;;;;;7.47;6.78;;;16.90;99.90;;;;;;5112833;28;20211;-61
2021/05/19 11:29:46;;;;;;;4.35;3.95;;;17.20;99.90;;;;;;5112414;28;20290;-60
2021/05/19 11:32:19;;;;;;;2.55;2.35;;;17.10;99.90;;;;;;5112606;28;20247;-61
2021/05/19 11:34:48;;;;;;;2.33;1.40;;;16.80;99.90;;;;;;5112383;28;20655;-61
2021/05/19 11:37:17;;;;;;;1.50;1.40;;;16.30;99.90;;;;;;5112470;28;20310;-63
2021/05/19 11:39:49;;;;;;;2.08;1.70;;;16.20;99.90;;;;;;5112662;28;20180;-60
2021/05/19 11:42:28;;;;;;;2.42;2.22;;;16.10;99.90;;;;;;5112529;28;20601;-64
2021/05/19 11:44:58;;;;;;;2.95;2.08;;;16.20;99.90;;;;;;5112409;28;20256;-65
2021/05/19 11:47:37;;;;;;;3.10;2.05;;;16.40;99.90;;;;;;5112671;28;20188;-63
2021/05/19 11:50:12;;;;;;;3.00;2.67;;;16.60;99.90;;;;;;5112574;28;20256;-62
2021/05/19 11:52:41;;;;;;;2.78;2.58;;;16.50;99.90;;;;;;5111927;28;20306;-62
2021/05/19 11:55:27;;;;;;;2.92;2.40;;;16.40;99.90;;;;;;5112284;28;20199;-62
2021/05/19 11:58:06;;;;;;;2.70;2.50;;;16.00;99.90;;;;;;5112671;28;20180;-62
2021/05/19 12:00:37;;;;;;;2.70;2.45;;;15.90;99.90;;;;;;5130906;28;20282;-62
2021/05/19 12:03:05;;;;;;;3.67;3.28;;;16.00;99.90;;;;;;5112945;28;20223;-63
2021/05/19 12:05:48;;;;;;;2.80;2.10;;;16.10;99.90;;;;;;5112309;28;20199;-64
2021/05/19 12:08:17;;;;;;;2.08;1.88;;;16.60;99.90;;;;;;5112342;28;20560;-63
2021/05/19 12:10:45;;;;;;;1.42;1.33;;;17.00;99.90;;;;;;5112202;28;20208;-61
2021/05/19 12:13:14;;;;;;;4.78;1.80;;;17.20;99.90;;;;;;5112219;28;20262;-62
2021/05/19 12:15:47;;;;;;;1.95;1.70;;;17.40;99.90;;;;;;5111481;28;20230;-62
2021/05/19 12:18:15;;;;;;;2.08;1.88;;;17.10;99.90;;;;;;5091700;28;20188;-63
2021/05/19 12:20:42;;;;;;;2.42;1.88;;;17.00;99.90;;;;;;5091801;28;20200;-63
2021/05/19 12:23:10;;;;;;;1.80;1.70;;;17.00;99.90;;;;;;5094384;28;20218;-62
2021/05/19 12:25:39;;;;;;;1.48;1.35;;;17.10;99.90;;;;;;5101629;28;20727;-63
2021/05/19 12:28:07;;;;;;;1.13;1.08;;;17.00;99.90;;;;;;5112656;28;20199;-62
2021/05/19 12:30:44;;;;;;;1.35;1.20;;;17.40;99.90;;;;;;5115038;28;20272;-63
2021/05/19 12:33:13;;;;;;;1.10;1.00;;;17.60;99.90;;;;;;5115323;28;20298;-63
2021/05/19 12:35:42;;;;;;;1.25;1.15;;;17.60;99.90;;;;;;5115434;28;20593;-62
2021/05/19 12:38:09;;;;;;;2.05;1.38;;;17.80;99.90;;;;;;5115449;28;20678;-62
2021/05/19 12:40:39;;;;;;;1.50;1.40;;;18.00;99.90;;;;;;5115397;28;20203;-62
2021/05/19 12:43:08;;;;;;;2.28;1.40;;;17.90;99.90;;;;;;5115461;28;20195;-63
2021/05/19 12:45:37;;;;;;;1.40;1.30;;;17.80;99.90;;;;;;5115092;28;20294;-62
2021/05/19 12:48:08;;;;;;;1.50;1.40;;;17.50;99.90;;;;;;5115064;28;20324;-62
2021/05/19 12:50:41;;;;;;;2.10;1.90;;;17.30;99.90;;;;;;5115276;28;20443;-62
2021/05/19 12:53:10;;;;;;;2.40;2.20;;;17.20;99.90;;;;;;5114871;28;20269;-62
2021/05/19 12:55:38;;;;;;;3.25;2.08;;;17.10;99.90;;;;;;5114898;28;20199;-62